createdAt,value
2017-12-24T00:02:17.210Z,20.10
2017-12-24T00:04:45.264Z,20.10
2017-12-24T00:07:13.338Z,19.90
2017-12-24T00:09:41.524Z,19.80
2017-12-24T00:12:09.535Z,19.80
2017-12-24T00:14:38.336Z,19.90
2017-12-24T00:17:07.247Z,19.90
2017-12-24T00:19:35.391Z,19.80
2017-12-24T00:22:03.449Z,19.90
2017-12-24T00:24:31.594Z,19.90
2017-12-24T00:26:59.610Z,19.90
2017-12-24T00:29:28.411Z,19.80
2017-12-24T00:31:57.312Z,19.80
2017-12-24T00:34:26.131Z,19.70
2017-12-24T00:36:54.179Z,19.70
2017-12-24T00:39:23.063Z,19.70
2017-12-24T00:41:51.836Z,19.80
2017-12-24T00:44:19.847Z,19.80
2017-12-24T00:46:48.047Z,19.70
2017-12-24T00:49:16.091Z,19.70
2017-12-24T00:51:44.140Z,19.70
2017-12-24T00:54:12.351Z,19.60
2017-12-24T00:56:40.455Z,19.70
2017-12-24T00:59:08.506Z,19.60
2017-12-24T01:01:36.655Z,19.60
2017-12-24T01:04:04.678Z,19.50
2017-12-24T01:06:32.853Z,19.50
2017-12-24T01:09:00.990Z,19.40
2017-12-24T01:11:29.007Z,19.40
2017-12-24T01:13:57.027Z,19.40
2017-12-24T01:16:25.231Z,19.50
2017-12-24T01:18:53.267Z,19.40
2017-12-24T01:21:21.463Z,19.40
2017-12-24T01:23:49.607Z,19.50
2017-12-24T01:26:18.423Z,19.60
2017-12-24T01:28:46.430Z,19.60
2017-12-24T01:31:14.611Z,19.50
2017-12-24T01:33:42.630Z,19.60
2017-12-24T01:36:10.739Z,19.50
2017-12-24T01:38:38.907Z,19.40
2017-12-24T01:41:06.960Z,19.30
2017-12-24T01:43:35.003Z,19.30
2017-12-24T01:46:03.961Z,19.40
2017-12-24T01:48:31.993Z,19.40
2017-12-24T01:51:00.036Z,19.50
2017-12-24T01:53:28.910Z,19.50
2017-12-24T01:55:57.176Z,19.40
2017-12-24T01:58:25.219Z,19.50
2017-12-24T02:00:53.367Z,19.50
2017-12-24T02:03:21.488Z,19.50
2017-12-24T02:05:49.530Z,19.60
2017-12-24T02:08:17.703Z,19.60
2017-12-24T02:10:45.738Z,19.70
2017-12-24T02:13:13.757Z,19.70
2017-12-24T02:15:42.016Z,19.60
2017-12-24T02:18:10.131Z,19.60
2017-12-24T02:20:38.199Z,19.70
2017-12-24T02:23:06.486Z,19.60
2017-12-24T02:25:34.499Z,19.60
2017-12-24T02:28:03.250Z,19.70
2017-12-24T02:30:31.701Z,19.70
2017-12-24T02:32:59.760Z,19.70
2017-12-24T02:35:27.852Z,19.70
2017-12-24T02:37:55.990Z,19.80
2017-12-24T02:40:24.735Z,19.70
2017-12-24T02:42:52.756Z,19.70
2017-12-24T02:45:20.966Z,19.70
2017-12-24T02:47:48.994Z,19.70
2017-12-24T02:50:17.784Z,19.80
2017-12-24T02:52:46.707Z,19.90
2017-12-24T02:55:14.787Z,19.90
2017-12-24T02:57:42.917Z,20.00
2017-12-24T03:00:11.799Z,20.00
2017-12-24T03:02:39.823Z,20.00
2017-12-24T03:05:07.890Z,20.00
2017-12-24T03:07:36.060Z,20.00
2017-12-24T03:10:04.119Z,20.10
2017-12-24T03:12:32.886Z,20.00
2017-12-24T03:15:01.847Z,20.10
2017-12-24T03:17:29.895Z,20.00
2017-12-24T03:19:57.948Z,20.10
2017-12-24T03:22:26.082Z,20.10
2017-12-24T03:24:54.259Z,20.10
2017-12-24T03:27:22.423Z,20.10
2017-12-24T03:29:50.568Z,20.10
2017-12-24T03:32:18.739Z,20.20
2017-12-24T03:34:46.750Z,20.20
2017-12-24T03:37:14.886Z,20.20
2017-12-24T03:39:42.935Z,20.20
2017-12-24T03:42:11.702Z,20.20
2017-12-24T03:44:39.859Z,20.20
2017-12-24T03:47:08.028Z,20.20
2017-12-24T03:49:36.075Z,20.30
2017-12-24T03:52:04.243Z,20.20
2017-12-24T03:54:32.264Z,20.00
2017-12-24T03:57:00.396Z,20.10
2017-12-24T03:59:28.531Z,20.10
2017-12-24T04:01:57.311Z,20.20
2017-12-24T04:04:25.375Z,20.20
2017-12-24T04:06:53.545Z,20.30
2017-12-24T04:09:21.580Z,20.30
2017-12-24T04:11:49.603Z,20.40
2017-12-24T04:14:18.514Z,20.40
2017-12-24T04:16:47.330Z,20.40
2017-12-24T04:19:15.334Z,20.40
2017-12-24T04:21:43.487Z,20.40
2017-12-24T04:24:11.514Z,20.40
2017-12-24T04:26:40.359Z,20.50
2017-12-24T04:29:08.483Z,20.50
2017-12-24T04:31:37.291Z,20.50
2017-12-24T04:34:05.875Z,20.50
2017-12-24T04:36:34.534Z,20.50
2017-12-24T04:39:05.125Z,20.50
2017-12-24T04:41:33.710Z,20.50
2017-12-24T04:44:02.674Z,20.60
2017-12-24T04:46:32.431Z,20.70
2017-12-24T04:49:01.083Z,20.70
2017-12-24T04:51:30.594Z,20.70
2017-12-24T04:53:58.934Z,20.70
2017-12-24T04:56:29.031Z,20.80
2017-12-24T04:58:58.699Z,20.80
2017-12-24T05:01:27.135Z,20.80
2017-12-24T05:03:55.672Z,20.80
2017-12-24T05:06:24.276Z,20.80
2017-12-24T05:08:53.868Z,20.80
2017-12-24T05:11:22.462Z,20.80
2017-12-24T05:13:50.778Z,20.90
2017-12-24T05:16:19.435Z,21.00
2017-12-24T05:18:47.913Z,21.00
2017-12-24T05:21:16.702Z,21.00
2017-12-24T05:23:45.180Z,21.10
2017-12-24T05:26:13.703Z,21.10
2017-12-24T05:28:43.526Z,21.00
2017-12-24T05:31:12.944Z,21.20
2017-12-24T05:33:41.756Z,21.20
2017-12-24T05:36:10.362Z,21.20
2017-12-24T05:38:39.727Z,21.20
2017-12-24T05:41:07.795Z,21.30
2017-12-24T05:43:37.364Z,21.30
2017-12-24T05:46:06.771Z,21.30
2017-12-24T05:48:36.250Z,21.40
2017-12-24T05:51:05.262Z,21.40
2017-12-24T05:53:33.759Z,21.40
2017-12-24T05:56:01.886Z,21.50
2017-12-24T05:58:32.215Z,21.50
2017-12-24T06:01:00.388Z,21.50
2017-12-24T06:03:28.594Z,21.60
2017-12-24T06:05:57.607Z,21.60
2017-12-24T06:08:26.543Z,21.70
2017-12-24T06:10:54.903Z,21.70
2017-12-24T06:13:24.584Z,21.80
2017-12-24T06:15:53.175Z,21.80
2017-12-24T06:18:21.174Z,21.90
2017-12-24T06:20:50.092Z,21.90
2017-12-24T06:23:18.160Z,21.90
2017-12-24T06:25:46.880Z,21.90
2017-12-24T06:28:15.494Z,22.00
2017-12-24T06:30:44.127Z,22.00
2017-12-24T06:33:16.882Z,22.00
2017-12-24T06:35:45.358Z,22.10
2017-12-24T06:38:14.591Z,22.30
2017-12-24T06:40:43.258Z,22.30
2017-12-24T06:43:11.995Z,22.30
2017-12-24T06:45:40.433Z,22.40
2017-12-24T06:48:09.051Z,22.40
2017-12-24T06:50:37.786Z,22.60
2017-12-24T06:53:07.190Z,22.70
2017-12-24T06:55:36.659Z,22.60
2017-12-24T06:58:04.987Z,22.60
2017-12-24T07:00:34.342Z,22.70
2017-12-24T07:03:02.518Z,22.70
2017-12-24T07:05:30.985Z,22.80
2017-12-24T07:07:59.015Z,23.00
2017-12-24T07:10:27.163Z,23.10
2017-12-24T07:12:55.513Z,23.10
2017-12-24T07:15:24.565Z,23.10
2017-12-24T07:17:53.075Z,23.20
2017-12-24T07:20:21.684Z,23.40
2017-12-24T07:22:50.531Z,23.50
2017-12-24T07:25:19.764Z,23.90
2017-12-24T07:27:49.416Z,23.80
2017-12-24T07:30:17.640Z,24.10
2017-12-24T07:32:47.638Z,24.40
2017-12-24T07:35:16.186Z,24.70
2017-12-24T07:37:44.955Z,24.80
2017-12-24T07:40:13.387Z,24.90
2017-12-24T07:42:42.907Z,25.30
2017-12-24T07:45:11.760Z,25.20
2017-12-24T07:47:40.586Z,25.30
2017-12-24T07:50:09.505Z,25.40
2017-12-24T07:52:39.059Z,25.60
2017-12-24T07:55:07.747Z,25.60
2017-12-24T07:57:36.684Z,25.40
2017-12-24T08:00:05.176Z,25.40
2017-12-24T08:02:33.186Z,25.30
2017-12-24T08:05:01.800Z,25.40
2017-12-24T08:07:30.214Z,25.70
2017-12-24T08:09:59.067Z,25.80
2017-12-24T08:12:28.034Z,25.90
2017-12-24T08:14:56.627Z,26.00
2017-12-24T08:17:26.923Z,25.90
2017-12-24T08:19:56.316Z,26.00
2017-12-24T08:22:24.491Z,26.00
2017-12-24T08:24:53.218Z,25.90
2017-12-24T08:27:22.092Z,26.10
2017-12-24T08:29:50.707Z,26.10
2017-12-24T08:32:19.651Z,26.50
2017-12-24T08:34:48.147Z,26.40
2017-12-24T08:37:17.542Z,26.50
2017-12-24T08:39:46.028Z,26.80
2017-12-24T08:42:16.703Z,26.90
2017-12-24T08:44:46.324Z,26.80
2017-12-24T08:47:15.731Z,26.80
2017-12-24T08:49:44.650Z,26.70
2017-12-24T08:52:12.667Z,26.60
2017-12-24T08:54:41.663Z,26.70
2017-12-24T08:57:10.407Z,26.70
2017-12-24T08:59:39.695Z,26.70
2017-12-24T09:02:08.467Z,26.80
2017-12-24T09:04:37.215Z,26.90
2017-12-24T09:07:05.895Z,26.90
2017-12-24T09:09:34.051Z,26.90
2017-12-24T09:12:02.510Z,27.00
2017-12-24T09:14:30.705Z,27.00
2017-12-24T09:16:59.592Z,27.00
2017-12-24T09:19:28.256Z,27.10
2017-12-24T09:21:56.287Z,27.10
2017-12-24T09:24:24.628Z,27.10
2017-12-24T09:26:52.852Z,27.20
2017-12-24T09:29:21.780Z,27.20
2017-12-24T09:31:50.330Z,27.20
2017-12-24T09:34:18.770Z,27.20
2017-12-24T09:36:47.223Z,27.30
2017-12-24T09:39:15.534Z,27.40
2017-12-24T09:41:43.583Z,27.40
2017-12-24T09:44:11.800Z,27.30
2017-12-24T09:46:40.238Z,27.30
2017-12-24T09:49:09.055Z,27.30
2017-12-24T09:51:37.587Z,27.30
2017-12-24T09:54:05.874Z,27.40
2017-12-24T09:56:34.707Z,27.40
2017-12-24T09:59:04.507Z,27.40
2017-12-24T10:01:32.679Z,27.40
2017-12-24T10:04:00.724Z,27.30
2017-12-24T10:06:29.960Z,27.20
2017-12-24T10:08:58.694Z,27.20
2017-12-24T10:11:26.890Z,27.20
2017-12-24T10:13:56.276Z,27.20
2017-12-24T10:16:24.982Z,27.20
2017-12-24T10:18:54.560Z,27.20
2017-12-24T10:21:22.777Z,27.20
2017-12-24T10:23:51.559Z,27.10
2017-12-24T10:26:20.580Z,27.00
2017-12-24T10:28:49.247Z,27.00
2017-12-24T10:31:17.596Z,27.00
2017-12-24T10:33:46.256Z,26.90
2017-12-24T10:36:14.893Z,26.90
2017-12-24T10:38:44.712Z,26.70
2017-12-24T10:41:13.439Z,26.60
2017-12-24T10:43:42.895Z,26.60
2017-12-24T10:46:11.838Z,26.50
2017-12-24T10:48:39.847Z,26.50
2017-12-24T10:51:08.343Z,26.50
2017-12-24T10:53:38.854Z,26.40
2017-12-24T10:56:07.318Z,26.40
2017-12-24T10:58:36.000Z,26.30
2017-12-24T11:01:06.356Z,26.30
2017-12-24T11:03:35.956Z,26.40
2017-12-24T11:06:05.467Z,26.40
2017-12-24T11:08:34.751Z,26.50
2017-12-24T11:11:04.395Z,26.40
2017-12-24T11:13:34.260Z,26.40
2017-12-24T11:16:03.071Z,26.50
2017-12-24T11:18:31.296Z,26.40
2017-12-24T11:20:59.796Z,26.40
2017-12-24T11:23:28.534Z,26.30
2017-12-24T11:25:57.153Z,26.20
2017-12-24T11:28:25.523Z,26.30
2017-12-24T11:30:54.408Z,26.20
2017-12-24T11:33:23.368Z,26.10
2017-12-24T11:35:51.573Z,26.10
2017-12-24T11:38:22.111Z,26.00
2017-12-24T11:40:50.800Z,26.00
2017-12-24T11:43:19.382Z,25.90
2017-12-24T11:45:48.914Z,26.00
2017-12-24T11:48:17.230Z,26.00
2017-12-24T11:50:45.258Z,25.90
2017-12-24T11:53:14.367Z,25.80
2017-12-24T11:55:42.823Z,25.70
2017-12-24T11:58:12.100Z,25.70
2017-12-24T12:00:41.229Z,25.70
2017-12-24T12:03:10.517Z,25.60
2017-12-24T12:05:38.891Z,25.60
2017-12-24T12:08:08.228Z,25.60
2017-12-24T12:10:37.943Z,25.60
2017-12-24T12:13:06.588Z,25.60
2017-12-24T12:15:36.348Z,25.50
2017-12-24T12:18:05.284Z,25.50
2017-12-24T12:20:34.207Z,25.50
2017-12-24T12:23:02.571Z,25.50
2017-12-24T12:25:30.706Z,25.40
2017-12-24T12:27:58.964Z,25.40
2017-12-24T12:30:27.599Z,25.30
2017-12-24T12:32:56.695Z,25.20
2017-12-24T12:35:26.424Z,25.20
2017-12-24T12:37:55.787Z,25.10
2017-12-24T12:40:25.588Z,25.10
2017-12-24T12:42:54.754Z,25.10
2017-12-24T12:45:23.781Z,25.10
2017-12-24T12:47:52.534Z,25.00
2017-12-24T12:50:22.348Z,25.00
2017-12-24T12:52:51.350Z,25.00
2017-12-24T12:55:19.863Z,25.00
2017-12-24T12:57:48.492Z,25.00
2017-12-24T13:00:19.050Z,24.90
2017-12-24T13:05:20.952Z,24.90
2017-12-24T13:07:50.776Z,24.80
2017-12-24T13:10:18.834Z,24.70
2017-12-24T13:12:48.763Z,24.70
2017-12-24T13:15:16.942Z,24.70
2017-12-24T13:17:44.982Z,24.70
2017-12-24T13:20:13.118Z,24.70
2017-12-24T13:22:41.304Z,24.50
2017-12-24T13:25:11.216Z,24.40
2017-12-24T13:27:40.164Z,24.30
2017-12-24T13:30:08.362Z,24.30
2017-12-24T13:32:38.083Z,24.20
2017-12-24T13:35:06.552Z,24.20
2017-12-24T13:37:35.256Z,24.20
2017-12-24T13:40:03.468Z,24.10
2017-12-24T13:42:31.836Z,24.10
2017-12-24T13:45:01.614Z,24.10
2017-12-24T13:47:29.823Z,24.10
2017-12-24T13:49:59.131Z,24.00
2017-12-24T13:52:28.310Z,24.00
2017-12-24T13:54:57.970Z,23.90
2017-12-24T13:57:26.743Z,23.90
2017-12-24T13:59:54.980Z,23.90
2017-12-24T14:02:23.043Z,23.90
2017-12-24T14:04:51.812Z,23.90
2017-12-24T14:07:19.975Z,23.80
2017-12-24T14:09:47.995Z,23.80
2017-12-24T14:12:16.256Z,23.80
2017-12-24T14:14:45.627Z,23.80
2017-12-24T14:17:14.231Z,23.80
2017-12-24T14:19:42.400Z,23.80
2017-12-24T14:22:10.423Z,23.80
2017-12-24T14:24:39.186Z,23.80
2017-12-24T14:27:07.492Z,23.80
2017-12-24T14:29:35.567Z,23.80
2017-12-24T14:32:04.051Z,23.80
2017-12-24T14:34:32.565Z,23.80
2017-12-24T14:37:00.960Z,23.80
2017-12-24T14:39:29.780Z,23.80
2017-12-24T14:41:58.299Z,23.80
2017-12-24T14:44:26.353Z,23.80
2017-12-24T14:46:55.241Z,23.70
2017-12-24T14:49:24.347Z,23.70
2017-12-24T14:51:54.612Z,23.70
2017-12-24T14:54:23.100Z,23.70
2017-12-24T14:56:51.418Z,23.70
2017-12-24T14:59:20.223Z,23.70
2017-12-24T15:01:49.628Z,23.70
2017-12-24T15:04:18.557Z,23.60
2017-12-24T15:06:47.051Z,23.60
2017-12-24T15:09:15.916Z,23.60
2017-12-24T15:11:44.046Z,23.50
2017-12-24T15:14:12.231Z,23.50
2017-12-24T15:16:41.272Z,23.50
2017-12-24T15:19:09.626Z,23.50
2017-12-24T15:21:39.764Z,23.60
2017-12-24T15:24:08.556Z,23.60
2017-12-24T15:26:36.738Z,23.60
2017-12-24T15:29:06.339Z,23.60
2017-12-24T15:31:35.003Z,23.60
2017-12-24T15:34:03.909Z,23.60
2017-12-24T15:36:32.300Z,23.60
2017-12-24T15:39:00.914Z,23.50
2017-12-24T15:41:30.240Z,23.50
2017-12-24T15:43:58.903Z,23.50
2017-12-24T15:46:28.504Z,23.40
2017-12-24T15:48:57.151Z,23.40
2017-12-24T15:51:25.369Z,23.30
2017-12-24T15:53:53.594Z,23.30
2017-12-24T15:56:22.787Z,23.30
2017-12-24T15:58:51.576Z,23.20
2017-12-24T16:01:20.562Z,23.20
2017-12-24T16:03:49.535Z,23.20
2017-12-24T16:06:18.155Z,23.20
2017-12-24T16:08:47.116Z,23.20
2017-12-24T16:11:16.867Z,23.20
2017-12-24T16:13:45.059Z,23.20
2017-12-24T16:16:13.368Z,23.20
2017-12-24T16:18:43.288Z,23.20
2017-12-24T16:21:11.326Z,23.20
2017-12-24T16:23:39.343Z,23.20
2017-12-24T16:26:07.955Z,23.10
2017-12-24T16:28:36.718Z,23.10
2017-12-24T16:31:06.428Z,23.10
2017-12-24T16:33:35.222Z,23.00
2017-12-24T16:36:03.994Z,23.00
2017-12-24T16:38:33.610Z,22.90
2017-12-24T16:41:02.568Z,22.90
2017-12-24T16:43:31.375Z,22.90
2017-12-24T16:45:59.437Z,22.90
2017-12-24T16:48:27.795Z,22.90
2017-12-24T16:50:55.963Z,22.90
2017-12-24T16:53:24.759Z,22.80
2017-12-24T16:55:53.200Z,22.80
2017-12-24T16:58:21.604Z,22.80
2017-12-24T17:00:49.991Z,22.90
2017-12-24T17:03:19.526Z,22.90
2017-12-24T17:05:47.628Z,22.80
2017-12-24T17:08:15.647Z,22.90
2017-12-24T17:10:46.039Z,22.80
2017-12-24T17:13:14.482Z,22.80
2017-12-24T17:15:43.600Z,22.80
2017-12-24T17:18:12.827Z,22.80
2017-12-24T17:20:40.847Z,22.80
2017-12-24T17:23:08.895Z,22.80
2017-12-24T17:25:37.809Z,22.80
2017-12-24T17:28:05.872Z,22.70
2017-12-24T17:30:33.939Z,22.80
2017-12-24T17:33:02.851Z,22.60
2017-12-24T17:35:30.977Z,22.60
2017-12-24T17:37:58.998Z,22.60
2017-12-24T17:40:27.152Z,22.60
2017-12-24T17:42:55.212Z,22.50
2017-12-24T17:45:24.000Z,22.50
2017-12-24T17:47:52.920Z,22.50
2017-12-24T17:50:20.941Z,22.50
2017-12-24T17:52:49.151Z,22.50
2017-12-24T17:55:18.078Z,22.40
2017-12-24T17:57:46.091Z,22.40
2017-12-24T18:00:14.116Z,22.40
2017-12-24T18:02:42.304Z,22.40
2017-12-24T18:05:10.352Z,22.40
2017-12-24T18:07:38.371Z,22.40
2017-12-24T18:10:06.560Z,22.30
2017-12-24T18:12:34.611Z,22.40
2017-12-24T18:15:02.668Z,22.40
2017-12-24T18:17:30.890Z,22.40
2017-12-24T18:19:59.683Z,22.30
2017-12-24T18:22:28.480Z,22.30
2017-12-24T18:24:57.396Z,22.20
2017-12-24T18:27:25.483Z,22.20
2017-12-24T18:29:53.502Z,22.20
2017-12-24T18:32:21.656Z,22.20
2017-12-24T18:34:49.690Z,22.20
2017-12-24T18:37:18.016Z,22.10
2017-12-24T18:39:47.063Z,22.10
2017-12-24T18:42:15.140Z,22.00
2017-12-24T18:44:43.239Z,22.00
2017-12-24T18:47:11.488Z,22.00
2017-12-24T18:49:40.113Z,21.90
2017-12-24T18:52:08.972Z,21.90
2017-12-24T18:54:37.292Z,22.00
2017-12-24T18:57:05.366Z,21.90
2017-12-24T18:59:33.416Z,21.90
2017-12-24T19:02:01.539Z,21.80
2017-12-24T19:04:30.291Z,21.80
2017-12-24T19:06:58.349Z,21.80
2017-12-24T19:09:26.527Z,21.80
2017-12-24T19:11:54.551Z,21.70
2017-12-24T19:14:23.302Z,21.70
2017-12-24T19:16:51.445Z,21.70
2017-12-24T19:19:19.470Z,21.70
2017-12-24T19:21:48.260Z,21.50
2017-12-24T19:24:17.154Z,21.50
2017-12-24T19:26:45.975Z,21.50
2017-12-24T19:29:14.032Z,21.50
2017-12-24T19:31:42.911Z,21.40
2017-12-24T19:34:11.700Z,21.50
2017-12-24T19:36:40.562Z,21.50
2017-12-24T19:39:08.744Z,21.50
2017-12-24T19:41:36.795Z,21.50
2017-12-24T19:44:04.848Z,21.50
2017-12-24T19:46:33.081Z,21.50
2017-12-24T19:49:01.846Z,21.40
2017-12-24T19:51:29.894Z,21.40
2017-12-24T19:53:58.087Z,21.40
2017-12-24T19:56:26.372Z,21.30
2017-12-24T19:58:54.442Z,21.30
2017-12-24T20:01:22.611Z,21.30
2017-12-24T20:03:50.664Z,21.20
2017-12-24T20:06:18.690Z,21.30
2017-12-24T20:08:46.827Z,21.30
2017-12-24T20:11:14.876Z,21.30
2017-12-24T20:13:42.899Z,21.20
2017-12-24T20:16:11.143Z,21.20
2017-12-24T20:18:39.146Z,21.20
2017-12-24T20:21:07.227Z,21.20
2017-12-24T20:23:36.111Z,21.10
2017-12-24T20:26:04.260Z,21.10
2017-12-24T20:28:32.274Z,21.10
2017-12-24T20:31:01.203Z,21.00
2017-12-24T20:33:29.227Z,21.00
2017-12-24T20:35:58.095Z,20.90
2017-12-24T20:38:26.231Z,20.80
2017-12-24T20:40:54.335Z,20.90
2017-12-24T20:43:22.393Z,20.80
2017-12-24T20:45:50.611Z,20.70
2017-12-24T20:48:18.668Z,20.70
2017-12-24T20:50:46.674Z,20.70
2017-12-24T20:53:15.579Z,20.60
2017-12-24T20:55:43.696Z,20.60
2017-12-24T20:58:11.895Z,20.80
2017-12-24T21:00:41.032Z,20.80
2017-12-24T21:03:09.062Z,20.80
2017-12-24T21:05:37.079Z,20.80
2017-12-24T21:08:05.198Z,20.90
2017-12-24T21:10:33.239Z,20.90
2017-12-24T21:13:01.263Z,20.90
2017-12-24T21:15:30.260Z,21.00
2017-12-24T21:17:59.056Z,20.90
2017-12-24T21:20:27.819Z,20.80
2017-12-24T21:22:55.951Z,20.80
2017-12-24T21:25:23.970Z,20.90
2017-12-24T21:27:52.047Z,20.90
2017-12-24T21:30:20.208Z,20.90
2017-12-24T21:32:48.215Z,21.00
2017-12-24T21:35:17.004Z,20.90
2017-12-24T21:37:45.878Z,20.90
2017-12-24T21:40:13.894Z,20.90
2017-12-24T21:42:41.951Z,20.90
2017-12-24T21:45:10.162Z,20.90
2017-12-24T21:47:38.267Z,20.90
2017-12-24T21:50:06.280Z,20.80
2017-12-24T21:52:34.422Z,20.70
2017-12-24T21:55:03.204Z,20.70
2017-12-24T21:57:31.966Z,20.70
2017-12-24T22:00:00.423Z,20.70
2017-12-24T22:02:28.483Z,20.80
2017-12-24T22:04:56.510Z,20.70
2017-12-24T22:07:24.641Z,20.70
2017-12-24T22:09:52.668Z,20.80
2017-12-24T22:12:20.674Z,20.60
2017-12-24T22:14:48.839Z,20.60
2017-12-24T22:17:17.628Z,20.60
2017-12-24T22:19:46.391Z,20.50
2017-12-24T22:22:14.520Z,20.50
2017-12-24T22:24:42.546Z,20.50
2017-12-24T22:27:11.336Z,20.50
2017-12-24T22:29:40.248Z,20.50
2017-12-24T22:32:08.998Z,20.50
2017-12-24T22:34:37.018Z,20.50
2017-12-24T22:37:05.195Z,20.40
2017-12-24T22:39:33.255Z,20.50
2017-12-24T22:42:02.006Z,20.60
2017-12-24T22:44:30.155Z,20.50
2017-12-24T22:46:58.191Z,20.60
2017-12-24T22:49:26.950Z,20.60
2017-12-24T22:51:55.086Z,20.60
2017-12-24T22:54:23.098Z,20.50
2017-12-24T22:56:51.106Z,20.60
2017-12-24T22:59:19.275Z,20.60
2017-12-24T23:01:48.197Z,20.70
2017-12-24T23:04:16.208Z,20.70
2017-12-24T23:06:44.487Z,20.70
2017-12-24T23:09:12.602Z,20.70
2017-12-24T23:11:40.618Z,20.70
2017-12-24T23:14:08.791Z,20.70
2017-12-24T23:16:36.926Z,20.70
2017-12-24T23:19:04.934Z,20.70
2017-12-24T23:21:33.076Z,20.70
2017-12-24T23:24:01.115Z,20.70
2017-12-24T23:26:29.927Z,20.80
2017-12-24T23:28:58.071Z,20.70
2017-12-24T23:31:26.855Z,20.80
2017-12-24T23:33:54.898Z,20.80
2017-12-24T23:36:23.084Z,20.80
2017-12-24T23:38:51.114Z,20.80
2017-12-24T23:41:19.151Z,20.70
2017-12-24T23:43:47.307Z,20.80
2017-12-24T23:46:15.439Z,20.80
2017-12-24T23:48:43.445Z,20.80
2017-12-24T23:51:11.603Z,20.80
2017-12-24T23:53:39.647Z,20.80
2017-12-24T23:56:07.763Z,20.80
2017-12-24T23:58:35.925Z,20.80
